createdAt,value
2023-01-11T00:01:32.320Z,-1.06
2023-01-11T00:04:02.792Z,-1.14
2023-01-11T00:06:31.916Z,-1.20
2023-01-11T00:09:02.464Z,-1.32
2023-01-11T00:11:33.610Z,-1.29
2023-01-11T00:14:02.833Z,-1.54
2023-01-11T00:16:31.997Z,-1.56
2023-01-11T00:19:01.191Z,-1.54
2023-01-11T00:21:30.479Z,-1.40
2023-01-11T00:24:01.194Z,-1.38
2023-01-11T00:26:30.641Z,-1.39
2023-01-11T00:29:00.163Z,-1.39
2023-01-11T00:31:29.696Z,-1.44
2023-01-11T00:33:59.125Z,-1.52
2023-01-11T00:36:28.242Z,-1.61
2023-01-11T00:38:57.566Z,-1.55
2023-01-11T00:41:54.052Z,-1.76
2023-01-11T00:44:40.667Z,-2.01
2023-01-11T00:47:32.321Z,-1.92
2023-01-11T00:50:01.877Z,-1.99
2023-01-11T00:52:31.115Z,-2.01
2023-01-11T00:55:00.261Z,-2.12
2023-01-11T00:57:31.028Z,-2.16
2023-01-11T01:00:00.585Z,-2.32
2023-01-11T01:02:29.857Z,-2.31
2023-01-11T01:04:59.066Z,-2.31
2023-01-11T01:07:28.428Z,-2.37
2023-01-11T01:09:57.843Z,-2.32
2023-01-11T01:12:44.789Z,-2.49
2023-01-11T01:15:15.362Z,-2.46
2023-01-11T01:17:44.791Z,-2.36
2023-01-11T01:20:16.629Z,-2.38
2023-01-11T01:22:46.082Z,-2.30
2023-01-11T01:25:16.387Z,-2.00
2023-01-11T01:27:45.717Z,-2.12
2023-01-11T01:30:16.650Z,-2.27
2023-01-11T01:32:51.051Z,-2.08
2023-01-11T01:35:23.834Z,-2.01
2023-01-11T01:37:53.167Z,-1.93
2023-01-11T01:40:22.897Z,-2.18
2023-01-11T01:42:55.993Z,-2.36
2023-01-11T01:45:29.121Z,-2.33
2023-01-11T01:48:02.133Z,-2.27
2023-01-11T01:50:36.405Z,-2.21
2023-01-11T01:53:11.223Z,-2.24
2023-01-11T01:55:46.823Z,-2.38
2023-01-11T01:58:20.989Z,-2.45
2023-01-11T02:00:52.025Z,-2.56
2023-01-11T02:03:26.660Z,-2.59
2023-01-11T02:05:56.223Z,-2.51
2023-01-11T02:08:36.792Z,-2.62
2023-01-11T02:11:27.374Z,-2.78
2023-01-11T02:13:58.242Z,-2.82
2023-01-11T02:16:28.851Z,-2.70
2023-01-11T02:18:59.540Z,-2.86
2023-01-11T02:21:41.226Z,-3.03
2023-01-11T02:24:51.745Z,-2.85
2023-01-11T02:27:35.175Z,-3.17
2023-01-11T02:30:23.515Z,-3.34
2023-01-11T02:33:05.568Z,-3.43
2023-01-11T02:35:45.616Z,-3.50
2023-01-11T02:38:28.241Z,-3.57
2023-01-11T02:41:08.555Z,-3.39
2023-01-11T02:44:05.014Z,-3.40
2023-01-11T02:46:43.509Z,-3.54
2023-01-11T02:49:22.715Z,-3.38
2023-01-11T02:51:57.022Z,-3.17
2023-01-11T02:54:26.338Z,-3.08
2023-01-11T02:57:01.717Z,-3.36
2023-01-11T02:59:36.033Z,-3.40
2023-01-11T03:02:06.602Z,-3.33
2023-01-11T03:04:38.099Z,-3.40
2023-01-11T03:07:22.866Z,-3.40
2023-01-11T03:10:08.260Z,-3.56
2023-01-11T03:12:52.383Z,-3.54
2023-01-11T03:16:01.585Z,-3.59
2023-01-11T03:18:46.786Z,-3.65
2023-01-11T03:21:35.236Z,-3.52
2023-01-11T03:24:16.871Z,-3.62
2023-01-11T03:26:58.885Z,-3.72
2023-01-11T03:29:34.603Z,-3.61
2023-01-11T03:32:18.909Z,-3.43
2023-01-11T03:35:00.746Z,-3.47
2023-01-11T03:37:37.124Z,-3.37
2023-01-11T03:40:12.880Z,-3.61
2023-01-11T03:43:01.044Z,-3.72
2023-01-11T03:45:32.489Z,-3.86
2023-01-11T03:48:04.651Z,-3.85
2023-01-11T03:50:35.626Z,-3.86
2023-01-11T03:53:08.387Z,-4.00
2023-01-11T03:55:43.307Z,-4.06
2023-01-11T03:58:12.584Z,-4.08
2023-01-11T04:00:42.893Z,-4.16
2023-01-11T04:03:12.831Z,-4.22
2023-01-11T04:05:46.488Z,-4.21
2023-01-11T04:08:15.707Z,-4.24
2023-01-11T04:10:44.967Z,-4.24
2023-01-11T04:13:14.277Z,-4.33
2023-01-11T04:15:43.595Z,-4.20
2023-01-11T04:18:12.830Z,-4.05
2023-01-11T04:20:43.990Z,-3.87
2023-01-11T04:23:13.210Z,-3.95
2023-01-11T04:25:42.452Z,-4.06
2023-01-11T04:28:11.762Z,-3.94
2023-01-11T04:30:40.894Z,-3.87
2023-01-11T04:33:13.397Z,-3.93
2023-01-11T04:35:44.722Z,-3.92
2023-01-11T04:38:13.889Z,-3.97
2023-01-11T04:40:43.138Z,-4.04
2023-01-11T04:43:12.339Z,-4.02
2023-01-11T04:45:43.491Z,-4.02
2023-01-11T04:48:12.618Z,-3.98
2023-01-11T04:50:43.226Z,-3.89
2023-01-11T04:53:12.330Z,-3.75
2023-01-11T04:55:41.559Z,-3.79
2023-01-11T04:58:11.457Z,-3.72
2023-01-11T05:00:40.841Z,-3.88
2023-01-11T05:03:10.058Z,-4.07
2023-01-11T05:05:39.272Z,-4.28
2023-01-11T05:08:09.806Z,-4.42
2023-01-11T05:10:39.030Z,-4.50
2023-01-11T05:13:08.372Z,-4.59
2023-01-11T05:15:38.046Z,-4.66
2023-01-11T05:18:07.429Z,-4.67
2023-01-11T05:20:37.912Z,-4.52
2023-01-11T05:23:07.151Z,-4.45
2023-01-11T05:25:38.864Z,-4.48
2023-01-11T05:28:08.140Z,-4.60
2023-01-11T05:30:37.468Z,-4.67
2023-01-11T05:33:06.658Z,-4.75
2023-01-11T05:35:36.003Z,-4.54
2023-01-11T05:38:05.393Z,-4.23
2023-01-11T05:40:34.584Z,-4.16
2023-01-11T05:43:05.717Z,-4.20
2023-01-11T05:45:33.917Z,-4.29
2023-01-11T05:48:03.231Z,-4.32
2023-01-11T05:50:32.498Z,-4.42
2023-01-11T05:53:01.688Z,-4.22
2023-01-11T05:55:30.875Z,-4.33
2023-01-11T05:58:00.885Z,-4.26
2023-01-11T06:00:31.539Z,-4.29
2023-01-11T06:03:02.477Z,-4.44
2023-01-11T06:05:31.809Z,-4.52
2023-01-11T06:08:01.302Z,-4.39
2023-01-11T06:10:30.561Z,-4.28
2023-01-11T06:13:14.630Z,-4.08
2023-01-11T06:15:45.668Z,-4.09
2023-01-11T06:18:14.923Z,-4.18
2023-01-11T06:20:44.132Z,-4.17
2023-01-11T06:23:13.558Z,-4.13
2023-01-11T06:25:44.624Z,-4.30
2023-01-11T06:28:14.989Z,-4.57
2023-01-11T06:30:46.017Z,-4.72
2023-01-11T06:33:15.174Z,-4.81
2023-01-11T06:35:45.137Z,-4.73
2023-01-11T06:38:16.572Z,-4.48
2023-01-11T06:40:53.341Z,-4.33
2023-01-11T06:43:23.470Z,-4.44
2023-01-11T06:45:54.368Z,-4.16
2023-01-11T06:48:26.628Z,-4.20
2023-01-11T06:50:58.301Z,-4.21
2023-01-11T06:53:29.505Z,-4.28
2023-01-11T06:55:59.845Z,-4.01
2023-01-11T06:58:28.984Z,-3.84
2023-01-11T07:01:00.833Z,-3.72
2023-01-11T07:03:30.265Z,-3.81
2023-01-11T07:05:59.980Z,-3.82
2023-01-11T07:08:29.544Z,-3.63
2023-01-11T07:10:58.847Z,-3.69
2023-01-11T07:13:28.098Z,-3.61
2023-01-11T07:16:00.109Z,-3.49
2023-01-11T07:18:31.781Z,-3.40
2023-01-11T07:21:01.090Z,-3.36
2023-01-11T07:23:30.290Z,-3.34
2023-01-11T07:25:59.552Z,-3.17
2023-01-11T07:28:30.688Z,-3.23
2023-01-11T07:31:01.392Z,-3.10
2023-01-11T07:33:30.710Z,-3.07
2023-01-11T07:36:00.861Z,-2.94
2023-01-11T07:38:30.247Z,-2.76
2023-01-11T07:40:59.484Z,-2.72
2023-01-11T07:43:27.730Z,-2.62
2023-01-11T07:45:58.263Z,-2.53
2023-01-11T07:48:29.279Z,-2.54
2023-01-11T07:50:58.421Z,-2.43
2023-01-11T07:53:27.538Z,-2.42
2023-01-11T07:55:57.285Z,-2.34
2023-01-11T07:58:26.491Z,-2.31
2023-01-11T08:00:55.585Z,-2.30
2023-01-11T08:03:24.858Z,-2.12
2023-01-11T08:05:55.473Z,-1.85
2023-01-11T08:08:24.680Z,-1.83
2023-01-11T08:11:07.554Z,-1.68
2023-01-11T08:13:54.163Z,-1.27
2023-01-11T08:16:23.533Z,-1.05
2023-01-11T08:18:52.777Z,-0.93
2023-01-11T08:21:23.416Z,-0.78
2023-01-11T08:23:54.780Z,-0.74
2023-01-11T08:26:24.128Z,-0.59
2023-01-11T08:28:54.453Z,-0.48
2023-01-11T08:31:24.729Z,-0.41
2023-01-11T08:33:54.134Z,-0.42
2023-01-11T08:36:27.529Z,-0.31
2023-01-11T08:38:56.923Z,-0.05
2023-01-11T08:41:26.908Z,0.15
2023-01-11T08:43:56.144Z,0.36
2023-01-11T08:46:27.615Z,0.57
2023-01-11T08:48:56.878Z,0.81
2023-01-11T08:51:27.523Z,0.90
2023-01-11T08:53:56.662Z,1.19
2023-01-11T08:56:25.968Z,1.41
2023-01-11T08:58:55.141Z,1.64
2023-01-11T09:01:24.533Z,1.84
2023-01-11T09:03:53.834Z,2.10
2023-01-11T09:06:23.370Z,2.17
2023-01-11T09:08:54.404Z,2.32
2023-01-11T09:11:41.424Z,2.43
2023-01-11T09:14:10.697Z,2.55
2023-01-11T09:16:40.034Z,2.79
2023-01-11T09:19:09.189Z,2.96
2023-01-11T09:21:38.358Z,3.24
2023-01-11T09:24:09.559Z,3.39
2023-01-11T09:26:38.731Z,3.60
2023-01-11T09:29:07.920Z,3.89
2023-01-11T09:31:37.277Z,3.98
2023-01-11T09:34:07.193Z,3.95
2023-01-11T09:36:36.990Z,3.97
2023-01-11T09:39:08.661Z,4.06
2023-01-11T09:42:37.678Z,4.22
2023-01-11T09:45:15.634Z,4.44
2023-01-11T09:47:49.877Z,4.68
2023-01-11T09:50:25.109Z,4.96
2023-01-11T09:52:59.104Z,5.17
2023-01-11T09:55:36.061Z,5.22
2023-01-11T09:58:36.114Z,5.49
2023-01-11T10:01:12.539Z,5.67
2023-01-11T10:04:14.036Z,5.83
2023-01-11T10:07:01.064Z,6.39
2023-01-11T10:18:30.854Z,5.80
2023-01-11T10:19:18.387Z,5.68
2023-01-11T10:21:49.611Z,5.44
2023-01-11T10:24:25.671Z,5.23
2023-01-11T10:26:59.709Z,5.18
2023-01-11T10:29:57.638Z,5.22
2023-01-11T10:32:54.331Z,5.06
2023-01-11T10:35:46.996Z,5.05
2023-01-11T10:38:42.791Z,4.85
2023-01-11T10:41:26.510Z,4.75
2023-01-11T10:44:11.548Z,4.89
2023-01-11T10:46:46.866Z,4.97
2023-01-11T10:49:44.589Z,4.85
2023-01-11T10:52:36.803Z,4.84
2023-01-11T10:55:14.451Z,4.74
2023-01-11T10:58:00.422Z,4.71
2023-01-11T11:00:40.466Z,4.86
2023-01-11T11:03:41.028Z,5.03
2023-01-11T11:06:21.334Z,5.23
2023-01-11T11:09:00.696Z,5.35
2023-01-11T11:11:37.279Z,5.38
2023-01-11T11:14:16.366Z,5.53
2023-01-11T11:17:00.911Z,5.70
2023-01-11T11:19:34.428Z,5.74
2023-01-11T11:22:05.110Z,5.84
2023-01-11T11:24:40.131Z,5.92
2023-01-11T11:27:22.103Z,6.10
2023-01-11T11:29:54.049Z,6.32
2023-01-11T11:32:29.121Z,6.20
2023-01-11T11:34:58.924Z,6.10
2023-01-11T11:37:34.532Z,6.14
2023-01-11T11:40:04.735Z,6.09
2023-01-11T11:42:33.928Z,5.92
2023-01-11T11:45:16.781Z,5.98
2023-01-11T11:48:03.206Z,6.21
2023-01-11T11:50:45.491Z,5.90
2023-01-11T11:53:33.074Z,6.04
2023-01-11T11:56:10.245Z,6.37
2023-01-11T11:58:42.951Z,6.61
2023-01-11T12:01:27.443Z,6.77
2023-01-11T12:04:00.720Z,6.96
2023-01-11T12:06:31.375Z,7.12
2023-01-11T12:09:05.231Z,7.22
2023-01-11T12:11:38.730Z,7.14
2023-01-11T12:14:24.502Z,7.05
2023-01-11T12:16:53.713Z,7.12
2023-01-11T12:19:35.878Z,7.22
2023-01-11T12:22:19.782Z,7.41
2023-01-11T12:25:06.015Z,7.54
2023-01-11T12:27:43.878Z,7.60
2023-01-11T12:30:25.779Z,7.73
2023-01-11T12:33:30.255Z,7.64
2023-01-11T12:36:06.865Z,8.05
2023-01-11T12:38:52.745Z,8.58
2023-01-11T12:42:01.831Z,9.13
2023-01-11T12:45:09.313Z,9.30
2023-01-11T12:48:09.897Z,9.68
2023-01-11T12:51:03.900Z,10.17
2023-01-11T12:54:00.712Z,10.59
2023-01-11T12:56:50.604Z,10.66
2023-01-11T12:59:51.214Z,10.54
2023-01-11T13:02:38.972Z,10.41
2023-01-11T13:05:24.681Z,10.39
2023-01-11T13:08:08.207Z,10.10
2023-01-11T13:10:51.228Z,10.09
2023-01-11T13:13:28.657Z,9.95
2023-01-11T13:16:02.155Z,10.02
2023-01-11T13:18:41.817Z,10.01
2023-01-11T13:21:25.537Z,10.03
2023-01-11T13:23:59.807Z,9.95
2023-01-11T13:26:33.200Z,9.76
2023-01-11T13:29:08.124Z,9.46
2023-01-11T13:31:39.439Z,9.24
2023-01-11T13:34:17.649Z,9.13
2023-01-11T13:36:54.743Z,9.00
2023-01-11T13:39:30.690Z,8.96
2023-01-11T13:42:04.605Z,8.99
2023-01-11T13:44:42.476Z,9.06
2023-01-11T13:47:20.755Z,9.18
2023-01-11T13:50:00.530Z,9.21
2023-01-11T13:52:49.761Z,9.17
2023-01-11T13:55:26.636Z,9.24
2023-01-11T13:58:04.058Z,9.21
2023-01-11T14:00:41.774Z,9.03
2023-01-11T14:03:29.029Z,8.82
2023-01-11T14:06:20.746Z,8.70
2023-01-11T14:09:13.161Z,8.55
2023-01-11T14:11:53.322Z,8.45
2023-01-11T14:14:43.704Z,8.33
2023-01-11T14:17:43.015Z,8.27
2023-01-11T14:20:24.440Z,8.27
2023-01-11T14:23:06.148Z,8.37
2023-01-11T14:25:45.130Z,8.46
2023-01-11T14:28:48.015Z,8.44
2023-01-11T14:31:54.392Z,8.15
2023-01-11T14:35:17.964Z,7.85
2023-01-11T14:38:20.379Z,7.53
2023-01-11T14:41:34.684Z,7.29
2023-01-11T14:44:29.975Z,6.93
2023-01-11T14:47:19.113Z,6.46
2023-01-11T14:50:06.037Z,5.76
2023-01-11T14:52:40.590Z,5.57
2023-01-11T14:55:26.867Z,5.41
2023-01-11T14:58:06.515Z,5.29
2023-01-11T15:01:11.117Z,5.14
2023-01-11T15:03:50.674Z,5.03
2023-01-11T15:06:23.023Z,4.95
2023-01-11T15:08:55.959Z,4.84
2023-01-11T15:11:38.025Z,4.72
2023-01-11T15:14:24.990Z,4.51
2023-01-11T15:17:24.018Z,4.31
2023-01-11T15:19:53.448Z,4.05
2023-01-11T15:22:30.822Z,3.81
2023-01-11T15:25:02.266Z,3.66
2023-01-11T15:27:38.785Z,3.56
2023-01-11T15:30:38.236Z,3.48
2023-01-11T15:33:29.853Z,3.40
2023-01-11T15:36:03.761Z,3.34
2023-01-11T15:38:36.927Z,3.26
2023-01-11T15:41:25.466Z,3.17
2023-01-11T15:44:16.518Z,2.97
2023-01-11T15:47:15.097Z,2.71
2023-01-11T15:50:26.186Z,2.64
2023-01-11T15:53:56.781Z,2.59
2023-01-11T15:57:12.126Z,2.69
2023-01-11T16:00:14.274Z,3.07
2023-01-11T16:03:18.564Z,3.11
2023-01-11T16:05:58.990Z,2.86
2023-01-11T16:08:34.443Z,2.64
2023-01-11T16:11:20.023Z,2.71
2023-01-11T16:14:08.147Z,2.58
2023-01-11T16:16:42.890Z,2.46
2023-01-11T16:19:20.357Z,2.34
2023-01-11T16:21:55.498Z,2.36
2023-01-11T16:24:29.492Z,2.27
2023-01-11T16:27:01.270Z,2.21
2023-01-11T16:29:36.599Z,2.31
2023-01-11T16:32:19.409Z,2.30
2023-01-11T16:34:52.039Z,2.34
2023-01-11T16:37:28.143Z,2.57
2023-01-11T16:40:05.553Z,2.52
2023-01-11T16:42:40.501Z,2.39
2023-01-11T16:45:15.970Z,2.38
2023-01-11T16:48:05.383Z,2.54
2023-01-11T16:50:35.791Z,2.52
2023-01-11T16:53:06.343Z,2.38
2023-01-11T16:55:39.759Z,2.26
2023-01-11T16:58:25.700Z,2.12
2023-01-11T17:01:01.747Z,2.18
2023-01-11T17:03:35.330Z,2.23
2023-01-11T17:06:20.151Z,2.28
2023-01-11T17:08:52.565Z,2.32
2023-01-11T17:11:36.504Z,2.44
2023-01-11T17:14:53.586Z,2.51
2023-01-11T17:17:24.809Z,2.56
2023-01-11T17:19:58.961Z,2.52
2023-01-11T17:22:31.710Z,2.46
2023-01-11T17:25:03.896Z,2.42
2023-01-11T17:27:40.710Z,2.38
2023-01-11T17:30:19.598Z,2.37
2023-01-11T17:32:52.971Z,2.38
2023-01-11T17:35:34.178Z,2.29
2023-01-11T17:38:08.667Z,2.23
2023-01-11T17:40:41.656Z,2.06
2023-01-11T17:43:41.302Z,1.97
2023-01-11T17:46:18.320Z,1.94
2023-01-11T17:48:55.312Z,1.95
2023-01-11T17:51:33.642Z,1.95
2023-01-11T17:54:03.020Z,1.89
2023-01-11T17:56:38.267Z,1.95
2023-01-11T17:59:21.182Z,1.94
2023-01-11T18:01:52.201Z,2.14
2023-01-11T18:04:24.398Z,2.06
2023-01-11T18:06:57.880Z,1.89
2023-01-11T18:09:29.457Z,1.75
2023-01-11T18:12:09.036Z,1.80
2023-01-11T18:14:42.598Z,1.92
2023-01-11T18:17:37.187Z,1.97
2023-01-11T18:20:40.260Z,1.91
2023-01-11T18:23:23.391Z,1.90
2023-01-11T18:26:28.654Z,1.74
2023-01-11T18:28:57.849Z,1.64
2023-01-11T18:31:27.662Z,1.49
2023-01-11T18:33:57.043Z,1.45
2023-01-11T18:36:28.515Z,1.41
2023-01-11T18:39:00.817Z,1.52
2023-01-11T18:41:47.475Z,1.58
2023-01-11T18:44:16.691Z,1.60
2023-01-11T18:46:46.081Z,1.54
2023-01-11T18:49:16.411Z,1.54
2023-01-11T18:51:48.375Z,1.48
2023-01-11T18:54:21.262Z,1.54
2023-01-11T18:56:53.589Z,1.51
2023-01-11T18:59:25.525Z,1.46
2023-01-11T19:02:11.736Z,1.44
2023-01-11T19:04:47.930Z,1.40
2023-01-11T19:07:17.826Z,1.27
2023-01-11T19:09:49.463Z,1.43
2023-01-11T19:12:19.298Z,1.55
2023-01-11T19:14:48.550Z,1.44
2023-01-11T19:17:18.282Z,1.49
2023-01-11T19:19:48.423Z,1.53
2023-01-11T19:22:17.898Z,1.67
2023-01-11T19:24:49.818Z,1.68
2023-01-11T19:27:19.318Z,1.61
2023-01-11T19:29:49.113Z,1.64
2023-01-11T19:32:23.659Z,1.73
2023-01-11T19:34:53.511Z,1.81
2023-01-11T19:37:23.141Z,1.83
2023-01-11T19:39:54.606Z,1.74
2023-01-11T19:42:24.498Z,1.82
2023-01-11T19:44:54.973Z,1.85
2023-01-11T19:47:24.347Z,1.73
2023-01-11T19:49:56.676Z,1.67
2023-01-11T19:52:27.661Z,1.69
2023-01-11T19:54:59.464Z,1.78
2023-01-11T19:57:29.741Z,1.79
2023-01-11T19:59:59.105Z,1.75
2023-01-11T20:02:28.349Z,1.70
2023-01-11T20:05:00.661Z,1.97
2023-01-11T20:07:43.824Z,1.98
2023-01-11T20:10:20.870Z,1.82
2023-01-11T20:12:55.837Z,1.83
2023-01-11T20:15:25.249Z,1.85
2023-01-11T20:17:54.647Z,1.77
2023-01-11T20:20:26.326Z,1.71
2023-01-11T20:22:56.977Z,1.65
2023-01-11T20:25:27.858Z,1.60
2023-01-11T20:27:57.314Z,1.61
2023-01-11T20:30:27.251Z,1.58
2023-01-11T20:32:56.680Z,1.56
2023-01-11T20:35:26.177Z,1.59
2023-01-11T20:37:55.595Z,1.65
2023-01-11T20:40:26.231Z,1.67
2023-01-11T20:42:58.775Z,1.78
2023-01-11T20:45:30.740Z,1.66
2023-01-11T20:48:04.560Z,1.59
2023-01-11T20:50:37.721Z,1.62
2023-01-11T20:53:07.009Z,1.67
2023-01-11T20:55:39.266Z,1.70
2023-01-11T20:58:13.448Z,1.76
2023-01-11T21:00:42.941Z,1.77
2023-01-11T21:03:12.294Z,1.82
2023-01-11T21:05:41.841Z,1.86
2023-01-11T21:08:11.258Z,1.86
2023-01-11T21:10:40.474Z,1.94
2023-01-11T21:13:11.442Z,2.06
2023-01-11T21:15:40.768Z,2.09
2023-01-11T21:18:12.111Z,1.92
2023-01-11T21:20:47.135Z,1.92
2023-01-11T21:23:17.154Z,1.97
2023-01-11T21:25:46.422Z,1.80
2023-01-11T21:28:17.140Z,1.79
2023-01-11T21:30:46.332Z,1.87
2023-01-11T21:33:15.949Z,1.83
2023-01-11T21:35:45.072Z,1.77
2023-01-11T21:38:14.189Z,1.71
2023-01-11T21:40:43.437Z,1.78
2023-01-11T21:43:14.818Z,1.76
2023-01-11T21:45:45.589Z,1.71
2023-01-11T21:48:15.944Z,1.71
2023-01-11T21:50:48.123Z,1.74
2023-01-11T21:53:17.433Z,1.75
2023-01-11T21:55:46.633Z,1.78
2023-01-11T21:58:18.219Z,1.77
2023-01-11T22:00:48.857Z,1.83
2023-01-11T22:03:18.193Z,1.91
2023-01-11T22:05:47.439Z,2.08
2023-01-11T22:08:16.825Z,2.08
2023-01-11T22:10:56.183Z,2.08
2023-01-11T22:13:25.530Z,2.13
2023-01-11T22:16:00.596Z,2.15
2023-01-11T22:18:30.427Z,2.19
2023-01-11T22:21:06.754Z,2.19
2023-01-11T22:23:36.233Z,2.23
2023-01-11T22:26:06.331Z,2.08
2023-01-11T22:28:56.329Z,1.96
2023-01-11T22:31:29.202Z,1.99
2023-01-11T22:33:59.300Z,2.29
2023-01-11T22:36:29.740Z,2.38
2023-01-11T22:38:59.147Z,2.20
2023-01-11T22:41:28.309Z,2.15
2023-01-11T22:43:57.681Z,2.14
2023-01-11T22:46:29.301Z,2.19
2023-01-11T22:48:58.739Z,2.06
2023-01-11T22:51:28.837Z,1.99
2023-01-11T22:53:58.335Z,2.00
2023-01-11T22:56:29.553Z,2.00
2023-01-11T22:58:59.312Z,1.90
2023-01-11T23:01:32.062Z,1.90
2023-01-11T23:04:01.986Z,1.83
2023-01-11T23:06:34.061Z,1.85
2023-01-11T23:09:05.056Z,1.95
2023-01-11T23:11:56.847Z,2.14
2023-01-11T23:14:30.759Z,2.00
2023-01-11T23:17:04.025Z,1.97
2023-01-11T23:19:33.676Z,1.81
2023-01-11T23:22:03.436Z,1.78
2023-01-11T23:24:32.843Z,1.79
2023-01-11T23:27:02.038Z,1.86
2023-01-11T23:29:31.310Z,1.96
2023-01-11T23:32:01.903Z,2.13
2023-01-11T23:34:31.300Z,2.19
2023-01-11T23:37:00.425Z,2.16
2023-01-11T23:39:33.283Z,2.08
2023-01-11T23:42:23.338Z,2.23
2023-01-11T23:44:54.181Z,2.11
2023-01-11T23:47:31.708Z,2.08
2023-01-11T23:50:01.954Z,1.97
2023-01-11T23:52:36.111Z,1.87
2023-01-11T23:55:06.438Z,1.98
2023-01-11T23:57:58.556Z,1.89
